createdAt,value
2018-06-23T00:00:50.920Z,10.57
2018-06-23T00:03:19.732Z,8.53
2018-06-23T00:05:48.452Z,11.23
2018-06-23T00:08:17.104Z,4.43
2018-06-23T00:10:45.870Z,7.93
2018-06-23T00:13:14.459Z,7.53
2018-06-23T00:15:43.183Z,9.50
2018-06-23T00:18:11.849Z,5.87
2018-06-23T00:20:40.580Z,9.90
2018-06-23T00:23:09.248Z,4.13
2018-06-23T00:25:38.027Z,11.13
2018-06-23T00:28:06.693Z,12.67
2018-06-23T00:30:35.443Z,4.53
2018-06-23T00:33:04.099Z,10.60
2018-06-23T00:35:32.815Z,10.30
2018-06-23T00:38:01.454Z,7.33
2018-06-23T00:40:30.174Z,8.17
2018-06-23T00:42:58.832Z,7.43
2018-06-23T00:45:27.597Z,10.47
2018-06-23T00:47:56.312Z,8.90
2018-06-23T00:50:25.026Z,9.57
2018-06-23T00:52:53.697Z,7.50
2018-06-23T00:55:22.377Z,12.35
2018-06-23T00:57:51.047Z,8.53
2018-06-23T01:00:19.769Z,9.10
2018-06-23T01:02:48.460Z,10.90
2018-06-23T01:05:17.198Z,8.50
2018-06-23T01:07:46.226Z,9.57
2018-06-23T01:10:15.088Z,11.20
2018-06-23T01:12:43.750Z,9.18
2018-06-23T01:15:12.501Z,5.73
2018-06-23T01:17:41.165Z,9.50
2018-06-23T01:20:09.935Z,9.90
2018-06-23T01:22:38.781Z,10.40
2018-06-23T01:25:07.473Z,7.70
2018-06-23T01:27:36.128Z,5.10
2018-06-23T01:30:04.866Z,10.27
2018-06-23T01:32:36.464Z,6.73
2018-06-23T01:35:05.142Z,7.62
2018-06-23T01:37:33.821Z,7.80
2018-06-23T01:40:02.525Z,11.83
2018-06-23T01:42:31.241Z,12.13
2018-06-23T01:44:59.893Z,11.67
2018-06-23T01:47:28.691Z,10.20
2018-06-23T01:49:57.299Z,9.07
2018-06-23T01:52:25.979Z,9.60
2018-06-23T01:54:54.623Z,7.63
2018-06-23T01:57:23.571Z,11.97
2018-06-23T01:59:52.196Z,12.77
2018-06-23T02:02:23.641Z,9.20
2018-06-23T02:04:52.341Z,8.23
2018-06-23T02:07:21.049Z,11.75
2018-06-23T02:09:49.750Z,10.83
2018-06-23T02:12:18.429Z,9.38
2018-06-23T02:14:47.095Z,7.97
2018-06-23T02:17:33.994Z,8.23
2018-06-23T02:20:20.472Z,7.23
2018-06-23T02:22:54.992Z,8.57
2018-06-23T02:25:26.338Z,12.43
2018-06-23T02:27:55.276Z,6.80
2018-06-23T02:30:26.725Z,10.33
2018-06-23T02:32:55.448Z,10.37
2018-06-23T02:35:24.134Z,9.73
2018-06-23T02:37:52.823Z,7.00
2018-06-23T02:40:21.566Z,9.17
2018-06-23T02:42:50.352Z,6.43
2018-06-23T02:45:19.322Z,8.48
2018-06-23T02:47:48.014Z,10.77
2018-06-23T02:50:16.665Z,7.27
2018-06-23T02:52:45.360Z,4.40
2018-06-23T02:55:14.060Z,6.07
2018-06-23T02:57:42.756Z,12.03
2018-06-23T03:00:11.447Z,9.93
2018-06-23T03:02:40.134Z,8.20
2018-06-23T03:05:08.968Z,10.97
2018-06-23T03:07:37.735Z,13.40
2018-06-23T03:10:06.387Z,11.27
2018-06-23T03:12:40.274Z,10.35
2018-06-23T03:15:08.922Z,16.23
2018-06-23T03:17:37.729Z,12.00
2018-06-23T03:20:06.428Z,10.57
2018-06-23T03:22:35.306Z,13.57
2018-06-23T03:25:04.037Z,12.60
2018-06-23T03:27:32.749Z,16.43
2018-06-23T03:30:01.427Z,16.47
2018-06-23T03:32:30.125Z,12.07
2018-06-23T03:34:58.822Z,12.07
2018-06-23T03:37:27.516Z,10.50
2018-06-23T03:39:56.180Z,13.73
2018-06-23T03:42:24.855Z,14.27
2018-06-23T03:44:53.577Z,8.83
2018-06-23T03:47:22.391Z,15.03
2018-06-23T03:49:51.078Z,12.10
2018-06-23T03:52:19.801Z,12.33
2018-06-23T03:54:48.501Z,16.27
2018-06-23T03:57:17.244Z,11.60
2018-06-23T03:59:45.877Z,15.77
2018-06-23T04:02:14.576Z,13.87
2018-06-23T04:04:43.257Z,17.17
2018-06-23T04:07:11.945Z,15.97
2018-06-23T04:09:40.593Z,14.10
2018-06-23T04:12:09.293Z,15.63
2018-06-23T04:14:37.947Z,14.00
2018-06-23T04:17:06.669Z,16.03
2018-06-23T04:19:35.407Z,14.87
2018-06-23T04:22:04.158Z,16.80
2018-06-23T04:24:32.818Z,21.33
2018-06-23T04:27:01.564Z,17.97
2018-06-23T04:29:30.213Z,18.07
2018-06-23T04:31:58.919Z,16.47
2018-06-23T04:34:27.577Z,16.80
2018-06-23T04:36:56.294Z,15.53
2018-06-23T04:39:24.976Z,17.50
2018-06-23T04:41:53.712Z,19.63
2018-06-23T04:44:22.355Z,18.57
2018-06-23T04:46:51.030Z,15.67
2018-06-23T04:49:19.789Z,11.90
2018-06-23T04:51:48.493Z,20.73
2018-06-23T04:54:17.152Z,15.63
2018-06-23T04:56:45.851Z,11.07
2018-06-23T04:59:14.518Z,18.17
2018-06-23T05:01:43.242Z,20.50
2018-06-23T05:04:11.882Z,12.77
2018-06-23T05:06:40.564Z,14.70
2018-06-23T05:09:09.295Z,15.60
2018-06-23T05:11:38.003Z,21.47
2018-06-23T05:14:06.700Z,16.67
2018-06-23T05:16:35.398Z,14.57
2018-06-23T05:19:04.151Z,16.17
2018-06-23T05:21:32.802Z,13.27
2018-06-23T05:24:01.899Z,14.70
2018-06-23T05:26:30.667Z,13.47
2018-06-23T05:28:59.363Z,12.37
2018-06-23T05:31:28.023Z,13.33
2018-06-23T05:33:56.737Z,12.40
2018-06-23T05:36:25.405Z,13.80
2018-06-23T05:38:54.150Z,11.95
2018-06-23T05:41:24.917Z,13.20
2018-06-23T05:43:53.619Z,11.73
2018-06-23T05:46:22.416Z,12.30
2018-06-23T05:48:51.160Z,14.20
2018-06-23T05:51:19.851Z,12.53
2018-06-23T05:53:48.569Z,10.90
2018-06-23T05:56:17.247Z,15.20
2018-06-23T05:58:45.968Z,8.30
2018-06-23T06:01:14.712Z,9.90
2018-06-23T06:03:43.405Z,12.23
2018-06-23T06:06:12.585Z,8.33
2018-06-23T06:08:41.315Z,9.47
2018-06-23T06:11:09.963Z,12.20
2018-06-23T06:13:38.779Z,9.97
2018-06-23T06:16:07.472Z,8.30
2018-06-23T06:18:36.118Z,9.17
2018-06-23T06:21:07.505Z,10.90
2018-06-23T06:23:36.171Z,7.97
2018-06-23T06:26:04.855Z,9.93
2018-06-23T06:28:33.563Z,10.87
2018-06-23T06:31:02.227Z,7.17
2018-06-23T06:33:30.950Z,11.23
2018-06-23T06:35:59.588Z,12.23
2018-06-23T06:38:28.323Z,8.27
2018-06-23T06:40:56.975Z,8.33
2018-06-23T06:43:25.853Z,9.27
2018-06-23T06:45:54.476Z,10.37
2018-06-23T06:48:23.601Z,9.13
2018-06-23T06:50:52.449Z,13.43
2018-06-23T06:53:21.509Z,9.30
2018-06-23T06:55:50.210Z,13.47
2018-06-23T06:58:19.182Z,7.00
2018-06-23T07:00:49.453Z,11.82
2018-06-23T07:03:18.599Z,10.73
2018-06-23T07:05:47.260Z,10.13
2018-06-23T07:08:16.240Z,14.13
2018-06-23T07:10:44.916Z,7.83
2018-06-23T07:13:14.051Z,11.70
2018-06-23T07:15:42.743Z,13.30
2018-06-23T07:18:13.074Z,12.27
2018-06-23T07:20:42.111Z,8.50
2018-06-23T07:23:10.802Z,12.70
2018-06-23T07:25:39.584Z,11.38
2018-06-23T07:28:08.823Z,9.93
2018-06-23T07:30:37.512Z,12.37
2018-06-23T07:33:10.399Z,11.70
2018-06-23T07:35:39.081Z,12.53
2018-06-23T07:38:07.930Z,12.05
2018-06-23T07:40:36.720Z,11.37
2018-06-23T07:43:05.368Z,9.70
2018-06-23T07:45:34.020Z,14.18
2018-06-23T07:48:04.952Z,11.17
2018-06-23T07:50:33.198Z,14.07
2018-06-23T07:53:01.884Z,14.03
2018-06-23T07:55:30.610Z,13.23
2018-06-23T07:57:59.643Z,19.25
2018-06-23T08:00:28.357Z,9.63
2018-06-23T08:02:56.981Z,12.57
2018-06-23T08:05:25.868Z,11.03
2018-06-23T08:07:54.575Z,15.23
2018-06-23T08:10:23.328Z,13.68
2018-06-23T08:12:52.008Z,10.20
2018-06-23T08:15:20.763Z,11.67
2018-06-23T08:17:49.455Z,13.17
2018-06-23T08:20:18.209Z,9.33
2018-06-23T08:22:46.891Z,13.77
2018-06-23T08:25:15.631Z,13.40
2018-06-23T08:27:44.504Z,10.83
2018-06-23T08:30:13.539Z,10.10
2018-06-23T08:32:57.949Z,13.93
2018-06-23T08:35:26.670Z,12.63
2018-06-23T08:37:55.388Z,9.83
2018-06-23T08:40:24.411Z,7.40
2018-06-23T08:42:53.165Z,12.53
2018-06-23T08:45:22.060Z,13.97
2018-06-23T08:47:50.671Z,10.67
2018-06-23T08:50:19.449Z,7.93
2018-06-23T08:52:48.488Z,10.07
2018-06-23T08:55:17.330Z,13.13
2018-06-23T08:57:46.034Z,11.00
2018-06-23T09:00:14.747Z,7.87
2018-06-23T09:02:43.479Z,12.27
2018-06-23T09:05:12.332Z,12.55
2018-06-23T09:07:41.116Z,6.77
2018-06-23T09:10:09.850Z,10.00
2018-06-23T09:12:38.536Z,10.07
2018-06-23T09:15:07.243Z,8.43
2018-06-23T09:17:36.007Z,8.77
2018-06-23T09:20:04.877Z,7.60
2018-06-23T09:22:33.668Z,10.07
2018-06-23T09:25:02.474Z,7.77
2018-06-23T09:27:31.534Z,4.50
2018-06-23T09:30:00.347Z,8.20
2018-06-23T09:32:29.180Z,6.28
2018-06-23T09:34:58.189Z,6.55
2018-06-23T09:37:26.916Z,7.18
2018-06-23T09:39:58.027Z,5.72
2018-06-23T09:42:27.019Z,9.80
2018-06-23T09:44:55.868Z,8.52
2018-06-23T09:47:24.615Z,7.03
2018-06-23T09:52:41.491Z,5.97
2018-06-23T09:55:10.676Z,9.43
2018-06-23T09:57:40.069Z,6.90
2018-06-23T10:00:09.298Z,6.80
2018-06-23T10:02:38.521Z,7.65
2018-06-23T10:05:11.877Z,4.57
2018-06-23T10:07:41.135Z,6.32
2018-06-23T10:10:11.336Z,4.87
2018-06-23T10:12:43.007Z,3.62
2018-06-23T10:15:12.078Z,7.97
2018-06-23T10:17:41.432Z,7.60
2018-06-23T10:20:10.232Z,5.28
2018-06-23T10:22:39.528Z,7.78
2018-06-23T10:25:12.066Z,7.25
2018-06-23T10:27:41.076Z,6.87
2018-06-23T10:30:10.374Z,7.28
2018-06-23T10:32:39.115Z,6.72
2018-06-23T10:35:08.445Z,7.25
2018-06-23T10:37:37.509Z,4.28
2018-06-23T10:40:06.946Z,4.53
2018-06-23T10:42:35.828Z,6.60
2018-06-23T10:45:04.770Z,6.22
2018-06-23T10:47:33.778Z,5.95
2018-06-23T10:50:03.595Z,4.80
2018-06-23T10:52:32.448Z,4.53
2018-06-23T10:57:52.123Z,5.68
2018-06-23T11:00:24.892Z,4.72
2018-06-23T11:02:54.908Z,6.07
2018-06-23T11:05:25.938Z,7.85
2018-06-23T11:07:57.868Z,4.68
2018-06-23T11:10:26.940Z,5.80
2018-06-23T11:12:56.085Z,3.25
2018-06-23T11:15:25.437Z,1.62
2018-06-23T11:17:57.675Z,1.62
2018-06-23T11:20:27.064Z,0.75
2018-06-23T11:22:56.609Z,0.70
2018-06-23T11:25:26.824Z,0.98
2018-06-23T11:27:57.413Z,1.02
2018-06-23T11:30:26.434Z,0.55
2018-06-23T11:32:55.556Z,0.73
2018-06-23T11:35:28.065Z,0.68
2018-06-23T11:37:57.081Z,1.70
2018-06-23T11:40:25.964Z,0.50
2018-06-23T11:42:54.656Z,1.20
2018-06-23T11:45:23.415Z,0.82
2018-06-23T11:47:52.130Z,0.90
2018-06-23T11:50:20.834Z,1.12
2018-06-23T11:52:49.638Z,0.95
2018-06-23T11:55:21.232Z,1.05
2018-06-23T11:57:50.310Z,0.65
2018-06-23T12:00:22.193Z,1.80
2018-06-23T12:02:51.110Z,3.62
2018-06-23T12:05:20.242Z,4.72
2018-06-23T12:07:49.284Z,2.75
2018-06-23T12:10:18.194Z,3.87
2018-06-23T12:12:50.507Z,3.00
2018-06-23T12:15:21.717Z,2.67
2018-06-23T12:17:51.047Z,6.12
2018-06-23T12:20:19.887Z,3.55
2018-06-23T12:22:59.617Z,5.70
2018-06-23T12:25:28.391Z,5.22
2018-06-23T12:27:57.174Z,3.37
2018-06-23T12:30:25.873Z,5.65
2018-06-23T12:32:54.554Z,8.35
2018-06-23T12:35:23.272Z,10.05
2018-06-23T12:37:51.933Z,8.80
2018-06-23T12:40:20.601Z,9.55
2018-06-23T12:42:49.280Z,4.72
2018-06-23T12:45:18.182Z,8.80
2018-06-23T12:47:46.877Z,7.55
2018-06-23T12:50:15.553Z,11.20
2018-06-23T12:52:44.292Z,7.95
2018-06-23T12:55:13.239Z,9.63
2018-06-23T12:57:41.968Z,10.05
2018-06-23T13:00:10.611Z,11.63
2018-06-23T13:02:39.303Z,10.40
2018-06-23T13:05:08.300Z,8.55
2018-06-23T13:07:39.057Z,8.80
2018-06-23T13:10:08.028Z,11.38
2018-06-23T13:12:37.133Z,7.35
2018-06-23T13:15:06.167Z,8.52
2018-06-23T13:17:35.252Z,8.23
2018-06-23T13:20:03.922Z,11.32
2018-06-23T13:22:33.141Z,10.68
2018-06-23T13:25:03.091Z,9.48
2018-06-23T13:27:32.186Z,11.02
2018-06-23T13:30:01.253Z,11.30
2018-06-23T13:32:30.576Z,13.82
2018-06-23T13:34:59.348Z,11.68
2018-06-23T13:37:28.639Z,8.80
2018-06-23T13:40:00.933Z,9.77
2018-06-23T13:42:30.031Z,10.32
2018-06-23T13:44:58.977Z,9.90
2018-06-23T13:47:31.441Z,12.27
2018-06-23T13:50:00.428Z,10.68
2018-06-23T13:52:31.905Z,11.27
2018-06-23T13:55:00.983Z,10.77
2018-06-23T13:57:31.016Z,9.85
2018-06-23T13:59:59.861Z,10.60
2018-06-23T14:02:28.980Z,11.45
2018-06-23T14:04:57.848Z,10.70
2018-06-23T14:07:26.919Z,12.60
2018-06-23T14:09:55.751Z,12.70
2018-06-23T14:12:24.445Z,11.52
2018-06-23T14:14:53.238Z,11.27
2018-06-23T14:17:21.958Z,12.60
2018-06-23T14:19:50.741Z,5.55
2018-06-23T14:22:19.446Z,7.22
2018-06-23T14:24:48.134Z,11.52
2018-06-23T14:27:16.829Z,11.18
2018-06-23T14:29:45.523Z,10.30
2018-06-23T14:32:14.227Z,8.88
2018-06-23T14:34:42.893Z,8.68
2018-06-23T14:37:11.610Z,10.10
2018-06-23T14:39:40.373Z,7.57
2018-06-23T14:42:09.469Z,9.52
2018-06-23T14:44:38.562Z,9.57
2018-06-23T14:47:07.783Z,6.35
2018-06-23T14:49:37.017Z,7.57
2018-06-23T14:52:06.530Z,9.43
2018-06-23T14:54:35.194Z,12.73
2018-06-23T14:57:03.892Z,13.00
2018-06-23T14:59:32.693Z,10.10
2018-06-23T15:02:01.894Z,10.15
2018-06-23T15:04:31.313Z,11.18
2018-06-23T15:07:00.052Z,9.77
2018-06-23T15:09:38.030Z,10.10
2018-06-23T15:12:44.771Z,11.40
2018-06-23T15:15:13.941Z,12.57
2018-06-23T15:17:43.181Z,8.55
2018-06-23T15:20:12.183Z,16.23
2018-06-23T15:22:40.881Z,8.52
2018-06-23T15:25:10.333Z,13.52
2018-06-23T15:27:39.082Z,11.65
2018-06-23T15:30:09.502Z,13.52
2018-06-23T15:32:38.228Z,11.15
2018-06-23T15:35:06.948Z,8.07
2018-06-23T15:37:35.786Z,10.85
2018-06-23T15:40:04.490Z,6.47
2018-06-23T15:42:33.177Z,6.50
2018-06-23T15:45:01.969Z,8.85
2018-06-23T15:47:31.164Z,10.73
2018-06-23T15:50:01.269Z,7.25
2018-06-23T15:52:30.071Z,9.88
2018-06-23T15:54:59.220Z,9.38
2018-06-23T15:57:28.374Z,11.27
2018-06-23T15:59:57.419Z,10.85
2018-06-23T16:02:26.181Z,8.85
2018-06-23T16:04:54.926Z,9.80
2018-06-23T16:07:23.618Z,10.45
2018-06-23T16:09:52.315Z,9.85
2018-06-23T16:12:21.047Z,9.15
2018-06-23T16:14:52.177Z,6.47
2018-06-23T16:17:20.852Z,6.30
2018-06-23T16:19:49.519Z,8.50
2018-06-23T16:22:18.239Z,9.13
2018-06-23T16:24:46.968Z,6.45
2018-06-23T16:27:15.776Z,7.87
2018-06-23T16:29:44.426Z,7.47
2018-06-23T16:32:13.140Z,8.38
2018-06-23T16:34:42.420Z,12.82
2018-06-23T16:37:11.036Z,7.75
2018-06-23T16:39:44.109Z,10.15
2018-06-23T16:42:12.810Z,8.75
2018-06-23T16:44:41.469Z,10.05
2018-06-23T16:47:10.108Z,9.48
2018-06-23T16:49:38.792Z,8.88
2018-06-23T16:52:07.472Z,8.10
2018-06-23T16:54:36.191Z,10.05
2018-06-23T16:57:04.860Z,8.93
2018-06-23T16:59:33.539Z,7.87
2018-06-23T17:02:02.169Z,9.10
2018-06-23T17:04:30.865Z,10.20
2018-06-23T17:06:59.527Z,11.23
2018-06-23T17:09:28.234Z,11.45
2018-06-23T17:11:56.869Z,10.45
2018-06-23T17:14:25.588Z,10.65
2018-06-23T17:16:54.236Z,9.43
2018-06-23T17:19:23.097Z,6.07
2018-06-23T17:21:51.835Z,9.90
2018-06-23T17:24:20.539Z,12.27
2018-06-23T17:26:49.474Z,11.35
2018-06-23T17:29:18.250Z,11.27
2018-06-23T17:31:47.030Z,10.75
2018-06-23T17:34:15.765Z,14.02
2018-06-23T17:36:44.488Z,12.55
2018-06-23T17:39:13.213Z,12.63
2018-06-23T17:41:41.896Z,10.57
2018-06-23T17:44:10.617Z,15.00
2018-06-23T17:46:39.304Z,13.15
2018-06-23T17:49:07.974Z,9.55
2018-06-23T17:51:36.711Z,12.93
2018-06-23T17:54:05.379Z,9.18
2018-06-23T17:56:34.092Z,11.55
2018-06-23T17:59:02.796Z,11.73
2018-06-23T18:01:31.423Z,12.07
2018-06-23T18:04:00.104Z,12.15
2018-06-23T18:06:28.893Z,11.90
2018-06-23T18:09:00.026Z,10.73
2018-06-23T18:11:28.756Z,10.15
2018-06-23T18:13:58.840Z,10.70
2018-06-23T18:16:27.494Z,15.43
2018-06-23T18:18:56.196Z,10.45
2018-06-23T18:21:24.857Z,11.57
2018-06-23T18:23:53.540Z,12.45
2018-06-23T18:26:22.171Z,7.87
2018-06-23T18:28:50.869Z,10.45
2018-06-23T18:31:19.548Z,8.43
2018-06-23T18:33:48.267Z,11.35
2018-06-23T18:36:16.934Z,10.23
2018-06-23T18:38:45.654Z,9.75
2018-06-23T18:41:14.308Z,8.80
2018-06-23T18:43:43.151Z,13.13
2018-06-23T18:46:11.758Z,13.10
2018-06-23T18:48:40.468Z,11.40
2018-06-23T18:51:09.160Z,12.85
2018-06-23T18:53:37.915Z,9.20
2018-06-23T18:56:06.557Z,10.43
2018-06-23T18:58:35.307Z,11.20
2018-06-23T19:01:03.940Z,12.43
2018-06-23T19:03:32.700Z,9.97
2018-06-23T19:06:01.406Z,9.38
2018-06-23T19:08:30.081Z,9.82
2018-06-23T19:10:58.744Z,13.20
2018-06-23T19:13:27.467Z,10.95
2018-06-23T19:15:56.104Z,15.20
2018-06-23T19:18:24.781Z,8.83
2018-06-23T19:20:53.454Z,12.13
2018-06-23T19:23:22.125Z,15.13
2018-06-23T19:25:50.899Z,14.60
2018-06-23T19:28:19.542Z,10.43
2018-06-23T19:30:54.280Z,11.70
2018-06-23T19:33:23.379Z,13.77
2018-06-23T19:35:52.077Z,10.30
2018-06-23T19:38:20.720Z,12.57
2018-06-23T19:40:49.402Z,16.73
2018-06-23T19:43:18.100Z,10.43
2018-06-23T19:45:46.879Z,13.47
2018-06-23T19:48:15.545Z,9.57
2018-06-23T19:50:44.264Z,12.90
2018-06-23T19:53:12.942Z,10.40
2018-06-23T19:55:41.681Z,14.30
2018-06-23T19:58:10.367Z,11.20
2018-06-23T20:00:39.101Z,11.23
2018-06-23T20:03:07.902Z,15.13
2018-06-23T20:05:36.602Z,11.23
2018-06-23T20:08:05.423Z,13.80
2018-06-23T20:10:34.143Z,13.93
2018-06-23T20:13:02.809Z,12.30
2018-06-23T20:15:31.504Z,15.48
2018-06-23T20:18:00.171Z,14.17
2018-06-23T20:20:28.868Z,9.27
2018-06-23T20:22:57.531Z,10.80
2018-06-23T20:25:26.232Z,13.83
2018-06-23T20:27:54.954Z,12.65
2018-06-23T20:30:23.687Z,10.30
2018-06-23T20:32:52.380Z,11.70
2018-06-23T20:35:21.151Z,14.15
2018-06-23T20:37:49.808Z,14.10
2018-06-23T20:40:18.479Z,9.67
2018-06-23T20:42:47.151Z,14.43
2018-06-23T20:45:15.876Z,12.70
2018-06-23T20:47:44.552Z,12.13
2018-06-23T20:50:13.259Z,13.07
2018-06-23T20:52:44.399Z,18.17
2018-06-23T20:55:13.089Z,11.90
2018-06-23T20:57:41.782Z,12.90
2018-06-23T21:00:10.462Z,12.10
2018-06-23T21:02:39.123Z,6.37
2018-06-23T21:05:07.840Z,12.07
2018-06-23T21:07:36.500Z,13.70
2018-06-23T21:10:05.262Z,13.93
2018-06-23T21:12:33.954Z,11.70
2018-06-23T21:15:02.694Z,12.23
2018-06-23T21:17:31.452Z,12.57
2018-06-23T21:20:00.192Z,11.35
2018-06-23T21:22:28.989Z,14.17
2018-06-23T21:24:57.733Z,15.88
2018-06-23T21:27:26.409Z,12.47
2018-06-23T21:29:55.131Z,10.87
2018-06-23T21:32:23.796Z,9.55
2018-06-23T21:34:52.519Z,14.67
2018-06-23T21:37:21.178Z,10.33
2018-06-23T21:39:49.868Z,12.20
2018-06-23T21:42:18.563Z,12.23
2018-06-23T21:44:47.238Z,13.73
2018-06-23T21:47:15.933Z,14.50
2018-06-23T21:49:44.636Z,16.20
2018-06-23T21:52:13.305Z,13.53
2018-06-23T21:54:42.018Z,9.13
2018-06-23T21:57:10.678Z,15.40
2018-06-23T21:59:39.370Z,12.23
2018-06-23T22:02:08.007Z,15.10
2018-06-23T22:04:36.660Z,12.87
2018-06-23T22:07:05.370Z,8.93
2018-06-23T22:09:34.069Z,14.50
2018-06-23T22:12:02.770Z,9.60
2018-06-23T22:14:31.479Z,10.60
2018-06-23T22:17:00.163Z,11.85
2018-06-23T22:19:28.858Z,14.17
2018-06-23T22:21:57.548Z,11.90
2018-06-23T22:24:26.201Z,11.75
2018-06-23T22:26:54.892Z,16.47
2018-06-23T22:29:23.553Z,13.03
2018-06-23T22:31:52.319Z,9.23
2018-06-23T22:34:20.975Z,13.57
2018-06-23T22:36:49.705Z,14.18
2018-06-23T22:39:18.354Z,6.63
2018-06-23T22:41:47.085Z,12.70
2018-06-23T22:44:15.734Z,12.57
2018-06-23T22:46:44.389Z,7.90
2018-06-23T22:49:13.045Z,13.30
2018-06-23T22:51:41.706Z,9.33
2018-06-23T22:54:10.363Z,8.43
2018-06-23T22:56:39.053Z,12.10
2018-06-23T22:59:07.704Z,7.73
2018-06-23T23:01:36.594Z,13.73
2018-06-23T23:04:05.384Z,12.43
2018-06-23T23:06:34.213Z,9.03
2018-06-23T23:09:03.093Z,8.83
2018-06-23T23:11:31.714Z,13.10
2018-06-23T23:14:00.355Z,8.50
2018-06-23T23:16:29.107Z,6.47
2018-06-23T23:18:57.831Z,8.10
2018-06-23T23:21:26.585Z,8.77
2018-06-23T23:23:55.226Z,10.70
2018-06-23T23:26:23.916Z,6.37
2018-06-23T23:28:52.618Z,9.47
2018-06-23T23:31:21.349Z,8.80
2018-06-23T23:33:50.112Z,8.70
2018-06-23T23:36:18.779Z,12.33
2018-06-23T23:38:47.411Z,9.03
2018-06-23T23:41:16.134Z,9.77
2018-06-23T23:43:44.800Z,8.83
2018-06-23T23:46:13.524Z,8.55
2018-06-23T23:48:42.180Z,8.30
2018-06-23T23:51:10.871Z,9.20
2018-06-23T23:53:39.576Z,10.20
2018-06-23T23:56:08.618Z,7.60
2018-06-23T23:58:37.574Z,8.37
